バンダルスリブガワン の空港の天気 - METARとTAF

ブルネイ国際空港 ( WBSB / BWN ) - ブルネイ バンダルスリブガワン
飛行場実況気象(Metar)
観測時間02/28 08:30 BNT (02/28 00:30 UTC)
風向・風速東北東 3m/s
視程8000m
天気現象
少しの雲 雲底高度 430m
全天の8割程度の雲 雲底高度 9140m
気温29℃
湿度84%
気圧1010hPa
METARWBSB 280030Z 06005KT 8000 FEW014 BKN300 29/26 Q1010 NOSIG
過去の天気等 Google飛行場航空写真 Wunderground天気予報

過去48時間のMETAR

飛行場予報(TAF)
発表時間: 2/28 07:00 BNT (2/27 23:00 UTC)
予報対象時間: 28日8時 BNT ~ 1日14時 BNT
風向・風速東北東 2m/s
視程9,000m
全天の4割程度の雲 雲底高度 460m
28日9時 BNT ~ 28日11時 BNT に徐々に
風向・風速北北東 6m/s
全天の4割程度の雲 雲底高度 490m
少しの積乱雲 雲底高度 520m
28日11時 BNT ~ 28日12時 BNT に一時的に
視程7,000m
天気現象しゅう雨
TAF WBSB 272300Z 2800/0106 06003KT 9000 SCT015
BECMG 2801/2803 02012KT SCT016 FEW017CB
TEMPO 2803/2804 7000 SHRA